sensor_id;sensor_type;location;lat;lon;timestamp;pressure;altitude;pressure_sealevel;temperature;humidity
59545;BME280;45368;55.002;-1.592;2023-05-23T00:00:03;101980.68;;;12.32;49.33
59545;BME280;45368;55.002;-1.592;2023-05-23T00:02:30;101983.42;;;11.59;50.37
59545;BME280;45368;55.002;-1.592;2023-05-23T00:04:57;101985.57;;;11.94;50.71
59545;BME280;45368;55.002;-1.592;2023-05-23T00:07:24;101977.30;;;13.01;48.37
59545;BME280;45368;55.002;-1.592;2023-05-23T00:09:51;101974.54;;;12.32;49.15
59545;BME280;45368;55.002;-1.592;2023-05-23T00:12:18;101975.98;;;13.27;48.33
59545;BME280;45368;55.002;-1.592;2023-05-23T00:14:45;101972.83;;;13.28;47.75
59545;BME280;45368;55.002;-1.592;2023-05-23T00:17:12;101972.75;;;13.51;47.11
59545;BME280;45368;55.002;-1.592;2023-05-23T00:19:39;101975.39;;;12.56;48.45
59545;BME280;45368;55.002;-1.592;2023-05-23T00:22:06;101980.61;;;12.75;48.74
59545;BME280;45368;55.002;-1.592;2023-05-23T00:24:33;101983.21;;;12.86;48.30
59545;BME280;45368;55.002;-1.592;2023-05-23T00:27:00;101983.66;;;12.47;49.76
59545;BME280;45368;55.002;-1.592;2023-05-23T00:29:27;101982.41;;;12.41;49.51
59545;BME280;45368;55.002;-1.592;2023-05-23T00:31:55;101980.42;;;12.00;50.38
59545;BME280;45368;55.002;-1.592;2023-05-23T00:34:21;101977.67;;;12.69;49.75
59545;BME280;45368;55.002;-1.592;2023-05-23T00:36:48;101972.96;;;12.16;50.18
59545;BME280;45368;55.002;-1.592;2023-05-23T00:39:15;101978.25;;;12.06;50.38
59545;BME280;45368;55.002;-1.592;2023-05-23T00:41:43;101975.20;;;12.06;49.58
59545;BME280;45368;55.002;-1.592;2023-05-23T00:44:11;101978.42;;;12.64;49.12
59545;BME280;45368;55.002;-1.592;2023-05-23T00:46:38;101977.13;;;12.94;48.78
59545;BME280;45368;55.002;-1.592;2023-05-23T00:49:06;101974.92;;;12.75;49.26
59545;BME280;45368;55.002;-1.592;2023-05-23T00:51:33;101971.60;;;12.72;49.14
59545;BME280;45368;55.002;-1.592;2023-05-23T00:54:04;101969.70;;;12.89;48.85
59545;BME280;45368;55.002;-1.592;2023-05-23T00:56:31;101969.91;;;12.02;50.05
59545;BME280;45368;55.002;-1.592;2023-05-23T00:58:58;101965.76;;;11.76;50.20
59545;BME280;45368;55.002;-1.592;2023-05-23T01:01:26;101972.76;;;13.00;48.06
59545;BME280;45368;55.002;-1.592;2023-05-23T01:03:53;101971.40;;;12.75;48.71
59545;BME280;45368;55.002;-1.592;2023-05-23T01:06:20;101972.54;;;13.02;48.23
59545;BME280;45368;55.002;-1.592;2023-05-23T01:08:48;101969.78;;;13.33;47.51
59545;BME280;45368;55.002;-1.592;2023-05-23T01:11:22;101966.44;;;13.16;47.53
59545;BME280;45368;55.002;-1.592;2023-05-23T01:13:58;101972.31;;;13.70;46.62
59545;BME280;45368;55.002;-1.592;2023-05-23T01:16:34;101976.93;;;13.43;47.36
59545;BME280;45368;55.002;-1.592;2023-05-23T01:19:13;101978.61;;;12.99;47.75
59545;BME280;45368;55.002;-1.592;2023-05-23T01:21:44;101976.39;;;13.70;46.65
59545;BME280;45368;55.002;-1.592;2023-05-23T01:24:31;101976.43;;;13.51;46.96
59545;BME280;45368;55.002;-1.592;2023-05-23T01:27:08;101970.57;;;13.97;46.47
59545;BME280;45368;55.002;-1.592;2023-05-23T01:29:43;101967.19;;;14.31;45.38
59545;BME280;45368;55.002;-1.592;2023-05-23T01:32:11;101963.62;;;14.34;45.06
59545;BME280;45368;55.002;-1.592;2023-05-23T01:34:40;101960.72;;;14.29;44.81
59545;BME280;45368;55.002;-1.592;2023-05-23T01:37:09;101958.13;;;14.44;44.60
59545;BME280;45368;55.002;-1.592;2023-05-23T01:39:36;101957.49;;;14.50;44.10
59545;BME280;45368;55.002;-1.592;2023-05-23T01:42:04;101960.99;;;13.93;44.76
59545;BME280;45368;55.002;-1.592;2023-05-23T01:44:33;101961.25;;;14.51;44.83
59545;BME280;45368;55.002;-1.592;2023-05-23T01:47:02;101959.17;;;14.19;45.18
59545;BME280;45368;55.002;-1.592;2023-05-23T01:49:30;101957.52;;;13.68;45.46
59545;BME280;45368;55.002;-1.592;2023-05-23T01:51:58;101961.75;;;14.53;45.18
59545;BME280;45368;55.002;-1.592;2023-05-23T01:54:27;101967.71;;;14.23;45.11
59545;BME280;45368;55.002;-1.592;2023-05-23T01:56:55;101974.41;;;14.23;45.02
59545;BME280;45368;55.002;-1.592;2023-05-23T01:59:23;101976.84;;;14.85;44.35
59545;BME280;45368;55.002;-1.592;2023-05-23T02:01:51;101979.41;;;14.17;45.52
59545;BME280;45368;55.002;-1.592;2023-05-23T02:04:18;101986.56;;;13.71;46.42
59545;BME280;45368;55.002;-1.592;2023-05-23T02:06:45;101985.80;;;13.88;46.20
59545;BME280;45368;55.002;-1.592;2023-05-23T02:09:12;101987.45;;;14.46;45.17
59545;BME280;45368;55.002;-1.592;2023-05-23T02:11:40;101988.90;;;14.30;45.29
59545;BME280;45368;55.002;-1.592;2023-05-23T02:14:06;101990.82;;;14.67;44.92
59545;BME280;45368;55.002;-1.592;2023-05-23T02:16:33;101990.89;;;14.54;45.27
59545;BME280;45368;55.002;-1.592;2023-05-23T02:19:00;101991.48;;;14.82;45.24
59545;BME280;45368;55.002;-1.592;2023-05-23T02:21:28;101993.80;;;14.55;45.49
59545;BME280;45368;55.002;-1.592;2023-05-23T02:23:54;101995.67;;;14.12;45.93
59545;BME280;45368;55.002;-1.592;2023-05-23T02:26:21;101994.03;;;14.26;46.21
59545;BME280;45368;55.002;-1.592;2023-05-23T02:28:49;101994.07;;;14.67;45.19
59545;BME280;45368;55.002;-1.592;2023-05-23T02:31:16;101998.87;;;14.34;45.54
59545;BME280;45368;55.002;-1.592;2023-05-23T02:33:44;102005.26;;;14.23;46.53
59545;BME280;45368;55.002;-1.592;2023-05-23T02:36:11;102001.00;;;14.19;46.13
59545;BME280;45368;55.002;-1.592;2023-05-23T02:38:37;102002.30;;;14.22;46.24
59545;BME280;45368;55.002;-1.592;2023-05-23T02:41:04;102002.04;;;13.53;47.29
59545;BME280;45368;55.002;-1.592;2023-05-23T02:43:31;102011.20;;;13.15;47.67
59545;BME280;45368;55.002;-1.592;2023-05-23T02:45:58;102013.29;;;12.48;48.04
59545;BME280;45368;55.002;-1.592;2023-05-23T02:48:25;102014.56;;;13.09;47.94
59545;BME280;45368;55.002;-1.592;2023-05-23T02:50:52;102009.79;;;12.89;48.17
59545;BME280;45368;55.002;-1.592;2023-05-23T02:53:19;102008.48;;;13.02;47.92
59545;BME280;45368;55.002;-1.592;2023-05-23T02:55:46;102007.30;;;13.27;47.75
59545;BME280;45368;55.002;-1.592;2023-05-23T02:58:13;102012.81;;;12.35;49.10
59545;BME280;45368;55.002;-1.592;2023-05-23T03:00:40;102019.49;;;12.43;48.99
59545;BME280;45368;55.002;-1.592;2023-05-23T03:03:07;102022.86;;;12.52;49.03
59545;BME280;45368;55.002;-1.592;2023-05-23T03:05:34;102021.30;;;12.61;48.44
59545;BME280;45368;55.002;-1.592;2023-05-23T03:08:00;102017.94;;;12.76;48.98
59545;BME280;45368;55.002;-1.592;2023-05-23T03:10:27;102018.68;;;11.49;50.95
59545;BME280;45368;55.002;-1.592;2023-05-23T03:12:54;102016.13;;;12.35;49.72
59545;BME280;45368;55.002;-1.592;2023-05-23T03:15:21;102007.98;;;13.33;47.80
59545;BME280;45368;55.002;-1.592;2023-05-23T03:17:48;102008.23;;;13.71;46.76
59545;BME280;45368;55.002;-1.592;2023-05-23T03:20:15;102015.86;;;12.72;48.68
59545;BME280;45368;55.002;-1.592;2023-05-23T03:22:42;102018.40;;;11.72;50.58
59545;BME280;45368;55.002;-1.592;2023-05-23T03:25:09;102017.48;;;13.29;47.75
59545;BME280;45368;55.002;-1.592;2023-05-23T03:27:36;102018.37;;;12.90;48.10
59545;BME280;45368;55.002;-1.592;2023-05-23T03:30:03;102022.31;;;12.58;48.34
59545;BME280;45368;55.002;-1.592;2023-05-23T03:32:30;102014.28;;;13.17;47.18
59545;BME280;45368;55.002;-1.592;2023-05-23T03:34:57;102015.91;;;12.69;48.47
59545;BME280;45368;55.002;-1.592;2023-05-23T03:37:24;102016.02;;;12.88;47.99
59545;BME280;45368;55.002;-1.592;2023-05-23T03:39:51;102014.54;;;12.75;48.46
59545;BME280;45368;55.002;-1.592;2023-05-23T03:42:18;102010.57;;;12.74;47.96
59545;BME280;45368;55.002;-1.592;2023-05-23T03:44:45;102009.87;;;12.17;49.31
59545;BME280;45368;55.002;-1.592;2023-05-23T03:47:11;102008.90;;;12.52;49.31
59545;BME280;45368;55.002;-1.592;2023-05-23T03:49:38;102006.11;;;11.89;49.80
59545;BME280;45368;55.002;-1.592;2023-05-23T03:52:06;102009.50;;;11.78;50.49
59545;BME280;45368;55.002;-1.592;2023-05-23T03:54:33;102006.73;;;12.62;48.75
59545;BME280;45368;55.002;-1.592;2023-05-23T03:57:00;102002.77;;;12.91;48.79
59545;BME280;45368;55.002;-1.592;2023-05-23T03:59:28;102002.45;;;11.27;51.76
59545;BME280;45368;55.002;-1.592;2023-05-23T04:01:55;101998.73;;;10.87;53.57
59545;BME280;45368;55.002;-1.592;2023-05-23T04:04:22;101993.77;;;12.64;50.32
59545;BME280;45368;55.002;-1.592;2023-05-23T04:06:49;101985.90;;;13.15;48.63
59545;BME280;45368;55.002;-1.592;2023-05-23T04:09:17;101984.43;;;12.83;48.78
59545;BME280;45368;55.002;-1.592;2023-05-23T04:11:44;101980.64;;;12.33;50.11
59545;BME280;45368;55.002;-1.592;2023-05-23T04:14:10;101976.78;;;13.27;48.29
59545;BME280;45368;55.002;-1.592;2023-05-23T04:16:37;101975.05;;;13.66;47.48
59545;BME280;45368;55.002;-1.592;2023-05-23T04:19:05;101978.53;;;11.64;51.20
59545;BME280;45368;55.002;-1.592;2023-05-23T04:21:33;101972.12;;;12.27;49.75
59545;BME280;45368;55.002;-1.592;2023-05-23T04:24:00;101972.85;;;12.11;50.83
59545;BME280;45368;55.002;-1.592;2023-05-23T04:26:27;101968.75;;;11.63;51.31
59545;BME280;45368;55.002;-1.592;2023-05-23T04:28:55;101972.38;;;12.05;50.41
59545;BME280;45368;55.002;-1.592;2023-05-23T04:31:22;101973.80;;;12.62;49.33
59545;BME280;45368;55.002;-1.592;2023-05-23T04:33:49;101971.38;;;13.89;47.58
59545;BME280;45368;55.002;-1.592;2023-05-23T04:36:16;101966.82;;;13.76;47.12
59545;BME280;45368;55.002;-1.592;2023-05-23T04:38:44;101976.26;;;12.24;49.78
59545;BME280;45368;55.002;-1.592;2023-05-23T04:41:11;101972.25;;;13.27;48.57
59545;BME280;45368;55.002;-1.592;2023-05-23T04:43:38;101977.71;;;13.63;47.95
59545;BME280;45368;55.002;-1.592;2023-05-23T04:46:04;101980.85;;;12.99;48.56
59545;BME280;45368;55.002;-1.592;2023-05-23T04:48:31;101977.22;;;13.18;48.22
59545;BME280;45368;55.002;-1.592;2023-05-23T04:50:58;101983.85;;;12.86;49.15
59545;BME280;45368;55.002;-1.592;2023-05-23T04:53:25;101989.51;;;12.23;49.90
59545;BME280;45368;55.002;-1.592;2023-05-23T04:55:53;101984.33;;;13.12;49.42
59545;BME280;45368;55.002;-1.592;2023-05-23T04:58:19;101987.21;;;13.00;49.14
59545;BME280;45368;55.002;-1.592;2023-05-23T05:00:47;101989.05;;;12.98;49.79
59545;BME280;45368;55.002;-1.592;2023-05-23T05:03:14;101991.07;;;12.12;50.44
59545;BME280;45368;55.002;-1.592;2023-05-23T05:05:41;101991.41;;;11.86;50.87
59545;BME280;45368;55.002;-1.592;2023-05-23T05:08:08;101989.59;;;11.75;51.25
59545;BME280;45368;55.002;-1.592;2023-05-23T05:10:35;101987.69;;;11.86;51.47
59545;BME280;45368;55.002;-1.592;2023-05-23T05:13:02;101988.92;;;12.52;50.19
59545;BME280;45368;55.002;-1.592;2023-05-23T05:15:29;101988.06;;;13.02;48.94
59545;BME280;45368;55.002;-1.592;2023-05-23T05:17:56;101991.69;;;13.06;48.38
59545;BME280;45368;55.002;-1.592;2023-05-23T05:20:22;101986.65;;;13.67;47.99
59545;BME280;45368;55.002;-1.592;2023-05-23T05:22:54;101980.54;;;14.05;47.44
59545;BME280;45368;55.002;-1.592;2023-05-23T05:25:21;101978.14;;;13.47;48.16
59545;BME280;45368;55.002;-1.592;2023-05-23T05:27:49;101982.97;;;12.85;49.00
59545;BME280;45368;55.002;-1.592;2023-05-23T05:30:16;101981.95;;;11.81;51.29
59545;BME280;45368;55.002;-1.592;2023-05-23T05:32:43;101979.93;;;13.40;48.93
59545;BME280;45368;55.002;-1.592;2023-05-23T05:35:09;101985.72;;;12.81;49.83
59545;BME280;45368;55.002;-1.592;2023-05-23T05:37:37;101982.90;;;12.30;50.52
59545;BME280;45368;55.002;-1.592;2023-05-23T05:40:05;101986.18;;;12.22;51.03
59545;BME280;45368;55.002;-1.592;2023-05-23T05:42:33;101983.48;;;13.20;49.37
59545;BME280;45368;55.002;-1.592;2023-05-23T05:45:01;101986.64;;;13.86;47.83
59545;BME280;45368;55.002;-1.592;2023-05-23T05:47:28;101985.45;;;13.70;47.42
59545;BME280;45368;55.002;-1.592;2023-05-23T05:49:55;101988.35;;;14.45;46.47
59545;BME280;45368;55.002;-1.592;2023-05-23T05:52:22;101989.44;;;14.68;46.10
59545;BME280;45368;55.002;-1.592;2023-05-23T05:54:49;101995.49;;;13.81;47.06
59545;BME280;45368;55.002;-1.592;2023-05-23T05:57:17;101990.61;;;14.22;47.02
59545;BME280;45368;55.002;-1.592;2023-05-23T05:59:44;101991.58;;;14.63;46.40
59545;BME280;45368;55.002;-1.592;2023-05-23T06:02:11;101990.94;;;13.86;47.26
59545;BME280;45368;55.002;-1.592;2023-05-23T06:04:38;101990.11;;;14.19;47.13
59545;BME280;45368;55.002;-1.592;2023-05-23T06:07:04;101989.36;;;13.76;47.33
59545;BME280;45368;55.002;-1.592;2023-05-23T06:09:31;101987.34;;;13.87;47.47
59545;BME280;45368;55.002;-1.592;2023-05-23T06:11:59;101991.25;;;12.70;49.26
59545;BME280;45368;55.002;-1.592;2023-05-23T06:14:26;101985.91;;;13.84;47.13
59545;BME280;45368;55.002;-1.592;2023-05-23T06:16:53;101986.59;;;13.30;48.98
59545;BME280;45368;55.002;-1.592;2023-05-23T06:19:20;101985.71;;;13.19;48.69
59545;BME280;45368;55.002;-1.592;2023-05-23T06:21:47;101983.02;;;14.44;46.87
59545;BME280;45368;55.002;-1.592;2023-05-23T06:24:14;101986.31;;;14.88;45.39
59545;BME280;45368;55.002;-1.592;2023-05-23T06:26:45;101988.45;;;13.61;47.33
59545;BME280;45368;55.002;-1.592;2023-05-23T06:29:12;101990.05;;;12.51;49.01
59545;BME280;45368;55.002;-1.592;2023-05-23T06:31:40;101985.62;;;14.27;46.98
59545;BME280;45368;55.002;-1.592;2023-05-23T06:34:08;101978.82;;;14.61;45.68
59545;BME280;45368;55.002;-1.592;2023-05-23T06:36:34;101978.01;;;14.83;45.54
59545;BME280;45368;55.002;-1.592;2023-05-23T06:39:01;101981.33;;;13.65;46.83
59545;BME280;45368;55.002;-1.592;2023-05-23T06:41:28;101977.64;;;13.88;47.20
59545;BME280;45368;55.002;-1.592;2023-05-23T06:43:55;101973.27;;;14.05;46.93
59545;BME280;45368;55.002;-1.592;2023-05-23T06:46:22;101967.75;;;14.69;45.42
59545;BME280;45368;55.002;-1.592;2023-05-23T06:48:49;101973.92;;;14.09;47.10
59545;BME280;45368;55.002;-1.592;2023-05-23T06:51:16;101970.50;;;13.50;47.32
59545;BME280;45368;55.002;-1.592;2023-05-23T06:53:42;101976.40;;;13.56;47.74
59545;BME280;45368;55.002;-1.592;2023-05-23T06:56:09;101972.63;;;14.81;46.16
59545;BME280;45368;55.002;-1.592;2023-05-23T06:58:36;101978.96;;;14.51;46.51
59545;BME280;45368;55.002;-1.592;2023-05-23T07:01:04;101972.42;;;14.48;46.59
59545;BME280;45368;55.002;-1.592;2023-05-23T07:03:31;101972.71;;;14.71;45.23
59545;BME280;45368;55.002;-1.592;2023-05-23T07:05:58;101973.43;;;14.80;46.48
59545;BME280;45368;55.002;-1.592;2023-05-23T07:08:25;101975.78;;;15.81;44.51
59545;BME280;45368;55.002;-1.592;2023-05-23T07:10:52;101978.30;;;15.62;44.09
59545;BME280;45368;55.002;-1.592;2023-05-23T07:13:19;101978.05;;;15.19;44.62
59545;BME280;45368;55.002;-1.592;2023-05-23T07:15:45;101979.29;;;15.38;44.31
59545;BME280;45368;55.002;-1.592;2023-05-23T07:18:12;101984.89;;;14.98;45.36
59545;BME280;45368;55.002;-1.592;2023-05-23T07:20:39;101986.77;;;13.69;47.61
59545;BME280;45368;55.002;-1.592;2023-05-23T07:23:06;101986.72;;;14.05;47.59
59545;BME280;45368;55.002;-1.592;2023-05-23T07:25:33;101980.19;;;15.61;45.21
59545;BME280;45368;55.002;-1.592;2023-05-23T07:28:00;101982.93;;;15.78;44.16
59545;BME280;45368;55.002;-1.592;2023-05-23T07:30:28;101986.54;;;15.13;45.04
59545;BME280;45368;55.002;-1.592;2023-05-23T07:32:55;101987.27;;;15.90;42.51
59545;BME280;45368;55.002;-1.592;2023-05-23T07:35:21;101987.40;;;15.73;41.90
59545;BME280;45368;55.002;-1.592;2023-05-23T07:37:49;101995.86;;;14.36;45.96
59545;BME280;45368;55.002;-1.592;2023-05-23T07:40:17;101987.56;;;15.21;43.38
59545;BME280;45368;55.002;-1.592;2023-05-23T07:42:49;101997.13;;;14.11;44.39
59545;BME280;45368;55.002;-1.592;2023-05-23T07:45:16;101988.51;;;16.17;39.82
59545;BME280;45368;55.002;-1.592;2023-05-23T07:47:43;101986.88;;;17.45;38.43
59545;BME280;45368;55.002;-1.592;2023-05-23T07:50:10;101977.75;;;18.72;36.41
59545;BME280;45368;55.002;-1.592;2023-05-23T07:52:37;101976.02;;;19.49;34.20
59545;BME280;45368;55.002;-1.592;2023-05-23T07:55:05;101980.93;;;18.95;35.35
59545;BME280;45368;55.002;-1.592;2023-05-23T07:57:32;101982.04;;;18.89;34.91
59545;BME280;45368;55.002;-1.592;2023-05-23T08:00:00;101975.84;;;20.16;32.19
59545;BME280;45368;55.002;-1.592;2023-05-23T08:02:27;101973.44;;;20.96;30.54
59545;BME280;45368;55.002;-1.592;2023-05-23T08:04:55;101974.80;;;20.01;29.77
59545;BME280;45368;55.002;-1.592;2023-05-23T08:07:22;101972.36;;;19.80;31.93
59545;BME280;45368;55.002;-1.592;2023-05-23T08:09:49;101974.64;;;18.83;33.43
59545;BME280;45368;55.002;-1.592;2023-05-23T08:12:16;101971.63;;;19.60;33.17
59545;BME280;45368;55.002;-1.592;2023-05-23T08:14:44;101970.08;;;20.00;33.19
59545;BME280;45368;55.002;-1.592;2023-05-23T08:17:12;101965.68;;;20.06;33.74
59545;BME280;45368;55.002;-1.592;2023-05-23T08:19:39;101968.73;;;20.10;33.41
59545;BME280;45368;55.002;-1.592;2023-05-23T08:22:07;101970.24;;;18.99;35.07
59545;BME280;45368;55.002;-1.592;2023-05-23T08:24:34;101964.81;;;20.56;33.50
59545;BME280;45368;55.002;-1.592;2023-05-23T08:27:02;101965.00;;;20.09;33.55
59545;BME280;45368;55.002;-1.592;2023-05-23T08:29:29;101961.22;;;21.35;32.68
59545;BME280;45368;55.002;-1.592;2023-05-23T08:31:56;101953.21;;;22.40;29.55
59545;BME280;45368;55.002;-1.592;2023-05-23T08:34:23;101953.02;;;22.32;30.33
59545;BME280;45368;55.002;-1.592;2023-05-23T08:36:49;101949.88;;;22.35;30.12
59545;BME280;45368;55.002;-1.592;2023-05-23T08:39:16;101946.96;;;23.24;28.70
59545;BME280;45368;55.002;-1.592;2023-05-23T08:41:43;101945.99;;;23.25;28.53
59545;BME280;45368;55.002;-1.592;2023-05-23T08:44:12;101942.09;;;23.73;27.52
59545;BME280;45368;55.002;-1.592;2023-05-23T08:46:43;101941.66;;;24.69;25.55
59545;BME280;45368;55.002;-1.592;2023-05-23T08:49:11;101947.16;;;25.41;24.78
59545;BME280;45368;55.002;-1.592;2023-05-23T08:51:42;101941.18;;;27.15;23.46
59545;BME280;45368;55.002;-1.592;2023-05-23T08:54:10;101947.15;;;26.15;24.28
59545;BME280;45368;55.002;-1.592;2023-05-23T08:56:37;101946.47;;;25.26;24.95
59545;BME280;45368;55.002;-1.592;2023-05-23T08:59:05;101943.60;;;24.92;25.47
59545;BME280;45368;55.002;-1.592;2023-05-23T09:01:32;101942.32;;;24.25;25.87
59545;BME280;45368;55.002;-1.592;2023-05-23T09:04:01;101942.42;;;23.35;26.82
59545;BME280;45368;55.002;-1.592;2023-05-23T09:06:28;101940.70;;;24.83;26.11
59545;BME280;45368;55.002;-1.592;2023-05-23T09:08:56;101941.97;;;23.76;27.50
59545;BME280;45368;55.002;-1.592;2023-05-23T09:11:23;101945.32;;;23.10;28.54
59545;BME280;45368;55.002;-1.592;2023-05-23T09:13:51;101939.99;;;23.10;28.66
59545;BME280;45368;55.002;-1.592;2023-05-23T09:16:18;101943.97;;;21.76;30.68
59545;BME280;45368;55.002;-1.592;2023-05-23T09:18:45;101940.31;;;21.17;31.80
59545;BME280;45368;55.002;-1.592;2023-05-23T09:21:13;101936.21;;;21.40;31.77
59545;BME280;45368;55.002;-1.592;2023-05-23T09:23:41;101937.63;;;19.39;34.69
59545;BME280;45368;55.002;-1.592;2023-05-23T09:26:09;101935.23;;;18.92;36.95
59545;BME280;45368;55.002;-1.592;2023-05-23T09:28:38;101935.52;;;17.41;39.04
59545;BME280;45368;55.002;-1.592;2023-05-23T09:31:07;101933.88;;;18.22;37.94
59545;BME280;45368;55.002;-1.592;2023-05-23T09:33:37;101937.33;;;18.52;37.30
59545;BME280;45368;55.002;-1.592;2023-05-23T09:36:05;101943.92;;;17.84;38.28
59545;BME280;45368;55.002;-1.592;2023-05-23T09:38:33;101939.09;;;17.89;38.82
59545;BME280;45368;55.002;-1.592;2023-05-23T09:41:03;101936.06;;;17.49;38.82
59545;BME280;45368;55.002;-1.592;2023-05-23T09:43:31;101930.91;;;17.84;38.47
59545;BME280;45368;55.002;-1.592;2023-05-23T09:46:03;101924.12;;;17.92;38.10
59545;BME280;45368;55.002;-1.592;2023-05-23T09:48:33;101933.71;;;17.00;38.67
59545;BME280;45368;55.002;-1.592;2023-05-23T09:51:03;101939.89;;;17.51;39.31
59545;BME280;45368;55.002;-1.592;2023-05-23T09:53:31;101935.94;;;17.13;40.08
59545;BME280;45368;55.002;-1.592;2023-05-23T09:55:59;101938.23;;;16.50;41.34
59545;BME280;45368;55.002;-1.592;2023-05-23T09:58:28;101940.86;;;16.36;41.98
59545;BME280;45368;55.002;-1.592;2023-05-23T10:00:55;101934.67;;;16.97;40.47
59545;BME280;45368;55.002;-1.592;2023-05-23T10:03:30;101930.65;;;17.06;40.99
59545;BME280;45368;55.002;-1.592;2023-05-23T10:06:01;101925.42;;;17.02;39.51
59545;BME280;45368;55.002;-1.592;2023-05-23T10:08:37;101924.43;;;16.56;40.72
59545;BME280;45368;55.002;-1.592;2023-05-23T10:12:46;101921.25;;;17.10;39.26
59545;BME280;45368;55.002;-1.592;2023-05-23T10:15:17;101914.95;;;17.25;41.11
59545;BME280;45368;55.002;-1.592;2023-05-23T10:17:58;101912.86;;;18.20;38.66
59545;BME280;45368;55.002;-1.592;2023-05-23T10:20:29;101912.32;;;16.17;38.97
59545;BME280;45368;55.002;-1.592;2023-05-23T10:22:59;101904.16;;;16.24;39.34
59545;BME280;45368;55.002;-1.592;2023-05-23T10:25:26;101903.12;;;17.41;38.07
59545;BME280;45368;55.002;-1.592;2023-05-23T10:27:55;101890.71;;;16.92;38.79
59545;BME280;45368;55.002;-1.592;2023-05-23T10:30:23;101883.12;;;17.56;37.79
59545;BME280;45368;55.002;-1.592;2023-05-23T10:32:51;101882.10;;;18.52;38.19
59545;BME280;45368;55.002;-1.592;2023-05-23T10:35:24;101884.16;;;17.79;37.32
59545;BME280;45368;55.002;-1.592;2023-05-23T10:37:58;101887.07;;;16.93;37.70
59545;BME280;45368;55.002;-1.592;2023-05-23T10:40:45;101874.96;;;17.70;37.78
59545;BME280;45368;55.002;-1.592;2023-05-23T10:43:24;101873.72;;;18.34;37.25
59545;BME280;45368;55.002;-1.592;2023-05-23T10:45:53;101868.72;;;19.04;36.11
59545;BME280;45368;55.002;-1.592;2023-05-23T10:48:22;101875.34;;;18.73;36.50
59545;BME280;45368;55.002;-1.592;2023-05-23T10:51:02;101878.81;;;17.68;37.08
59545;BME280;45368;55.002;-1.592;2023-05-23T10:53:33;101867.15;;;19.57;34.99
59545;BME280;45368;55.002;-1.592;2023-05-23T10:56:03;101858.55;;;22.24;31.64
59545;BME280;45368;55.002;-1.592;2023-05-23T10:58:31;101849.40;;;24.50;27.94
59545;BME280;45368;55.002;-1.592;2023-05-23T11:01:00;101843.40;;;28.25;24.33
59545;BME280;45368;55.002;-1.592;2023-05-23T11:03:30;101837.24;;;31.32;21.45
59545;BME280;45368;55.002;-1.592;2023-05-23T11:05:58;101833.69;;;31.90;20.14
59545;BME280;45368;55.002;-1.592;2023-05-23T11:08:25;101832.50;;;32.39;18.13
59545;BME280;45368;55.002;-1.592;2023-05-23T11:10:55;101839.75;;;30.51;19.47
59545;BME280;45368;55.002;-1.592;2023-05-23T11:13:26;101840.50;;;30.47;18.90
59545;BME280;45368;55.002;-1.592;2023-05-23T11:16:27;101826.46;;;31.84;17.87
59545;BME280;45368;55.002;-1.592;2023-05-23T11:19:32;101831.39;;;30.78;18.38
59545;BME280;45368;55.002;-1.592;2023-05-23T11:22:00;101835.39;;;30.11;19.12
59545;BME280;45368;55.002;-1.592;2023-05-23T11:25:01;101826.81;;;27.66;21.44
59545;BME280;45368;55.002;-1.592;2023-05-23T11:27:33;101818.97;;;28.30;21.65
59545;BME280;45368;55.002;-1.592;2023-05-23T11:30:03;101813.34;;;28.14;21.22
59545;BME280;45368;55.002;-1.592;2023-05-23T11:32:33;101815.91;;;29.65;21.24
59545;BME280;45368;55.002;-1.592;2023-05-23T11:35:02;101822.68;;;27.44;23.01
59545;BME280;45368;55.002;-1.592;2023-05-23T11:37:30;101829.52;;;25.79;24.32
59545;BME280;45368;55.002;-1.592;2023-05-23T11:39:57;101828.74;;;26.05;24.35
59545;BME280;45368;55.002;-1.592;2023-05-23T11:42:25;101817.15;;;29.95;20.42
59545;BME280;45368;55.002;-1.592;2023-05-23T11:44:52;101824.05;;;28.33;21.80
59545;BME280;45368;55.002;-1.592;2023-05-23T11:47:20;101823.22;;;28.49;22.60
59545;BME280;45368;55.002;-1.592;2023-05-23T11:49:47;101829.32;;;26.45;24.08
59545;BME280;45368;55.002;-1.592;2023-05-23T11:52:15;101820.41;;;27.69;22.33
59545;BME280;45368;55.002;-1.592;2023-05-23T11:54:43;101820.15;;;27.13;22.24
59545;BME280;45368;55.002;-1.592;2023-05-23T11:57:12;101817.26;;;25.55;23.80
59545;BME280;45368;55.002;-1.592;2023-05-23T11:59:40;101820.11;;;24.56;25.89
59545;BME280;45368;55.002;-1.592;2023-05-23T12:02:07;101814.82;;;23.33;27.15
59545;BME280;45368;55.002;-1.592;2023-05-23T12:04:34;101810.89;;;22.67;27.29
59545;BME280;45368;55.002;-1.592;2023-05-23T12:07:04;101822.94;;;21.11;32.16
59545;BME280;45368;55.002;-1.592;2023-05-23T12:09:31;101817.72;;;21.69;31.29
59545;BME280;45368;55.002;-1.592;2023-05-23T12:11:58;101812.18;;;21.77;30.26
59545;BME280;45368;55.002;-1.592;2023-05-23T12:14:28;101814.52;;;21.02;30.46
59545;BME280;45368;55.002;-1.592;2023-05-23T12:16:55;101813.83;;;20.05;32.66
59545;BME280;45368;55.002;-1.592;2023-05-23T12:19:22;101812.23;;;19.52;34.34
59545;BME280;45368;55.002;-1.592;2023-05-23T12:21:49;101806.17;;;19.88;33.23
59545;BME280;45368;55.002;-1.592;2023-05-23T12:24:17;101806.85;;;19.10;34.89
59545;BME280;45368;55.002;-1.592;2023-05-23T12:26:47;101802.83;;;19.59;34.79
59545;BME280;45368;55.002;-1.592;2023-05-23T12:29:14;101802.78;;;20.00;34.09
59545;BME280;45368;55.002;-1.592;2023-05-23T12:31:42;101800.81;;;19.87;33.64
59545;BME280;45368;55.002;-1.592;2023-05-23T12:34:11;101803.01;;;19.84;34.04
59545;BME280;45368;55.002;-1.592;2023-05-23T12:36:39;101800.14;;;20.24;33.08
59545;BME280;45368;55.002;-1.592;2023-05-23T12:39:07;101803.44;;;19.89;33.63
59545;BME280;45368;55.002;-1.592;2023-05-23T12:41:34;101799.83;;;20.62;32.15
59545;BME280;45368;55.002;-1.592;2023-05-23T12:44:02;101793.55;;;19.53;34.40
59545;BME280;45368;55.002;-1.592;2023-05-23T12:46:29;101788.94;;;19.87;33.72